Terminal Aerodrome Forecast
Issued by NWS

Home | Current Version | Previous Version | Text Only | Print | Product List | Glossary On
Versions: 1 2 3 4 5 6 7 8 9 10 11 12 13 14
000
FTUS46 KSGX 261100
TAFSNA
TAF
KSNA 261124Z 2612/2712 VRB04KT P6SM SKC WS015/05025KT
     FM261500 05010G18KT P6SM SKC
     FM262200 28007KT P6SM SKC
     FM270000 VRB05KT P6SM SKC
     FM270600 VRB05KT P6SM SKC WS015/05030KT=

USA.gov is the U.S. government's official web portal to all federal, state and local government web resources and services.